createdAt,value
2023-02-22T00:02:32.549Z,3.20
2023-02-22T00:07:35.909Z,3.30
2023-02-22T00:12:41.854Z,3.20
2023-02-22T00:17:44.896Z,3.70
2023-02-22T00:22:49.147Z,3.40
2023-02-22T00:27:53.064Z,3.10
2023-02-22T00:32:56.660Z,3.30
2023-02-22T00:38:00.634Z,3.40
2023-02-22T00:43:04.968Z,4.00
2023-02-22T00:48:08.975Z,2.80
2023-02-22T00:53:11.890Z,3.10
2023-02-22T00:58:16.094Z,3.20
2023-02-22T01:03:20.101Z,3.50
2023-02-22T01:08:25.193Z,3.10
2023-02-22T01:13:28.110Z,2.90
2023-02-22T01:18:36.457Z,3.10
2023-02-22T01:23:39.292Z,2.30
2023-02-22T01:28:42.074Z,2.50
2023-02-22T01:33:44.819Z,3.00
2023-02-22T01:38:47.694Z,2.80
2023-02-22T01:43:50.495Z,3.20
2023-02-22T01:49:00.685Z,3.20
2023-02-22T01:54:15.256Z,2.50
2023-02-22T01:59:18.370Z,3.30
2023-02-22T02:04:25.639Z,3.40
2023-02-22T02:09:47.038Z,3.30
2023-02-22T02:14:50.438Z,2.70
2023-02-22T02:19:55.930Z,3.60
2023-02-22T02:25:28.532Z,2.60
2023-02-22T02:30:52.019Z,2.80
2023-02-22T02:36:20.143Z,2.90
2023-02-22T02:41:39.827Z,3.30
2023-02-22T02:47:03.850Z,3.30
2023-02-22T02:52:06.635Z,3.70
2023-02-22T02:57:09.516Z,2.80
2023-02-22T03:02:45.937Z,2.80
2023-02-22T03:07:55.686Z,3.50
2023-02-22T03:13:09.349Z,3.20
2023-02-22T03:18:18.483Z,3.80
2023-02-22T03:23:47.773Z,3.00
2023-02-22T03:28:51.895Z,3.30
2023-02-22T03:34:16.116Z,2.80
2023-02-22T03:39:18.941Z,3.10
2023-02-22T03:44:24.978Z,3.20
2023-02-22T03:49:49.312Z,2.90
2023-02-22T03:54:55.119Z,3.20
2023-02-22T03:59:57.974Z,3.30
2023-02-22T04:05:01.013Z,4.00
2023-02-22T04:10:04.373Z,4.30
2023-02-22T04:15:08.580Z,2.60
2023-02-22T04:20:13.657Z,3.20
2023-02-22T04:25:16.644Z,2.10
2023-02-22T04:30:19.982Z,1.40
2023-02-22T04:35:23.257Z,1.20
2023-02-22T04:40:26.375Z,0.80
2023-02-22T04:45:29.225Z,1.30
2023-02-22T04:50:32.371Z,1.30
2023-02-22T04:55:35.148Z,1.50
2023-02-22T05:00:37.892Z,1.60
2023-02-22T05:05:40.711Z,1.50
2023-02-22T05:10:43.480Z,1.60
2023-02-22T05:15:46.280Z,1.60
2023-02-22T05:20:49.105Z,1.60
2023-02-22T05:25:51.907Z,1.50
2023-02-22T05:30:54.731Z,1.50
2023-02-22T05:35:57.492Z,1.60
2023-02-22T05:41:01.185Z,1.40
2023-02-22T05:46:04.247Z,1.70
2023-02-22T05:51:07.577Z,1.70
2023-02-22T05:56:10.309Z,2.20
2023-02-22T06:01:13.155Z,2.00
2023-02-22T06:06:16.621Z,2.30
2023-02-22T06:11:19.972Z,2.30
2023-02-22T06:16:24.118Z,2.40
2023-02-22T06:21:27.377Z,2.80
2023-02-22T06:26:30.189Z,2.70
2023-02-22T06:31:32.994Z,2.60
2023-02-22T06:36:35.843Z,2.90
2023-02-22T06:41:38.760Z,3.10
2023-02-22T06:46:51.217Z,2.90
2023-02-22T06:51:54.732Z,3.10
2023-02-22T06:56:57.520Z,2.70
2023-02-22T07:02:00.497Z,2.80
2023-02-22T07:07:03.361Z,2.50
2023-02-22T07:12:07.395Z,3.00
2023-02-22T07:17:11.653Z,2.70
2023-02-22T07:22:15.170Z,3.40
2023-02-22T07:27:18.073Z,3.00
2023-02-22T07:32:20.974Z,3.10
2023-02-22T07:37:24.001Z,2.60
2023-02-22T07:42:26.739Z,2.60
2023-02-22T07:47:29.520Z,3.30
2023-02-22T07:52:32.451Z,3.50
2023-02-22T07:57:35.402Z,3.20
2023-02-22T08:02:38.181Z,2.30
2023-02-22T08:07:41.084Z,2.10
2023-02-22T08:12:43.953Z,2.30
2023-02-22T08:17:46.798Z,2.60
2023-02-22T08:22:49.864Z,2.50
2023-02-22T08:27:52.947Z,2.10
2023-02-22T08:32:56.322Z,2.20
2023-02-22T08:38:05.320Z,2.30
2023-02-22T08:43:08.133Z,2.10
2023-02-22T08:48:11.180Z,1.80
2023-02-22T08:53:14.422Z,1.70
2023-02-22T08:58:17.202Z,2.00
2023-02-22T09:03:20.014Z,1.70
2023-02-22T09:08:22.828Z,1.90
2023-02-22T09:13:25.793Z,2.10
2023-02-22T09:18:39.026Z,2.30
2023-02-22T09:23:47.740Z,2.20
2023-02-22T09:28:50.845Z,2.10
2023-02-22T09:33:53.615Z,2.40
2023-02-22T09:38:56.359Z,2.10
2023-02-22T09:44:24.080Z,2.40
2023-02-22T09:49:40.290Z,2.20
2023-02-22T09:54:51.952Z,1.70
2023-02-22T10:00:14.590Z,2.20
2023-02-22T10:05:34.510Z,2.10
2023-02-22T10:10:39.422Z,1.90
2023-02-22T10:15:51.606Z,2.40
2023-02-22T10:21:02.829Z,2.50
2023-02-22T10:26:19.774Z,2.40
2023-02-22T10:31:30.636Z,2.30
2023-02-22T10:36:34.513Z,4.00
2023-02-22T10:41:42.549Z,3.80
2023-02-22T10:46:45.460Z,4.70
2023-02-22T10:52:02.795Z,5.50
2023-02-22T10:57:05.628Z,4.80
2023-02-22T11:02:32.582Z,4.70
2023-02-22T11:07:36.771Z,4.60
2023-02-22T11:12:43.871Z,5.00
2023-02-22T11:17:50.039Z,5.30
2023-02-22T11:22:54.753Z,4.00
2023-02-22T11:28:15.061Z,4.20
2023-02-22T11:33:24.163Z,4.10
2023-02-22T11:38:31.370Z,4.60
2023-02-22T11:43:34.425Z,4.60
2023-02-22T11:48:40.180Z,4.20
2023-02-22T11:54:19.456Z,5.10
2023-02-22T11:59:34.576Z,5.20
2023-02-22T12:05:08.397Z,5.50
2023-02-22T12:10:37.912Z,4.00
2023-02-22T12:16:02.574Z,4.30
2023-02-22T12:21:16.989Z,4.70
2023-02-22T12:26:31.020Z,4.50
2023-02-22T12:32:28.927Z,4.60
2023-02-22T12:37:45.134Z,5.20
2023-02-22T12:42:58.843Z,4.30
2023-02-22T12:48:17.472Z,4.20
2023-02-22T12:53:38.322Z,4.20
2023-02-22T12:59:39.007Z,4.20
2023-02-22T13:04:41.860Z,3.80
2023-02-22T13:10:03.569Z,4.40
2023-02-22T13:15:20.315Z,4.20
2023-02-22T13:20:33.113Z,4.00
2023-02-22T13:25:58.133Z,4.00
2023-02-22T13:31:17.720Z,4.20
2023-02-22T13:37:05.417Z,3.60
2023-02-22T13:42:37.503Z,3.80
2023-02-22T13:48:11.077Z,4.20
2023-02-22T13:53:26.501Z,4.10
2023-02-22T13:58:29.815Z,4.20
2023-02-22T14:03:40.482Z,4.20
2023-02-22T14:08:43.948Z,3.80
2023-02-22T14:13:57.041Z,3.80
2023-02-22T14:19:23.088Z,3.80
2023-02-22T14:24:26.700Z,4.00
2023-02-22T14:29:29.707Z,4.00
2023-02-22T14:34:48.827Z,4.00
2023-02-22T14:40:19.147Z,3.90
2023-02-22T14:45:29.914Z,3.40
2023-02-22T14:50:52.266Z,3.50
2023-02-22T14:56:07.003Z,4.00
2023-02-22T15:01:21.895Z,3.80
2023-02-22T15:06:28.649Z,3.30
2023-02-22T15:11:34.494Z,3.70
2023-02-22T15:16:47.566Z,3.70
2023-02-22T15:21:52.182Z,4.10
2023-02-22T15:27:01.605Z,3.50
2023-02-22T15:32:31.859Z,3.00
2023-02-22T15:37:34.841Z,3.40
2023-02-22T15:42:44.664Z,3.80
2023-02-22T15:47:49.361Z,4.50
2023-02-22T15:53:05.618Z,4.00
2023-02-22T15:58:22.485Z,4.30
2023-02-22T16:03:33.184Z,4.20
2023-02-22T16:08:54.032Z,3.80
2023-02-22T16:14:07.535Z,4.40
2023-02-22T16:19:45.071Z,4.10
2023-02-22T16:24:52.250Z,4.10
2023-02-22T16:30:25.346Z,3.40
2023-02-22T16:35:29.452Z,4.10
2023-02-22T16:40:41.164Z,3.80
2023-02-22T16:45:44.109Z,4.20
2023-02-22T16:50:49.642Z,4.10
2023-02-22T16:55:58.035Z,4.20
2023-02-22T17:01:01.008Z,3.80
2023-02-22T17:06:03.987Z,4.40
2023-02-22T17:11:07.587Z,4.10
2023-02-22T17:16:14.249Z,3.90
2023-02-22T17:21:17.119Z,5.00
2023-02-22T17:26:20.009Z,5.00
2023-02-22T17:31:26.279Z,5.80
2023-02-22T17:36:30.368Z,6.80
2023-02-22T17:41:33.186Z,6.20
2023-02-22T17:46:37.385Z,6.00
2023-02-22T17:51:40.933Z,6.30
2023-02-22T17:56:43.893Z,6.80
2023-02-22T18:01:48.158Z,6.90
2023-02-22T18:06:52.425Z,6.70
2023-02-22T18:11:55.336Z,8.00
2023-02-22T18:16:58.253Z,8.20
2023-02-22T18:22:03.165Z,7.90
2023-02-22T18:27:06.033Z,8.70
2023-02-22T18:32:13.217Z,9.90
2023-02-22T18:37:20.480Z,9.80
2023-02-22T18:42:24.620Z,9.30
2023-02-22T18:47:27.542Z,9.50
2023-02-22T18:52:31.226Z,11.00
2023-02-22T18:57:35.899Z,9.70
2023-02-22T19:02:38.892Z,11.00
2023-02-22T19:07:41.719Z,9.60
2023-02-22T19:12:44.640Z,9.50
2023-02-22T19:17:47.483Z,10.20
2023-02-22T19:22:50.757Z,9.00
2023-02-22T19:27:59.710Z,9.10
2023-02-22T19:33:04.987Z,9.00
2023-02-22T19:38:07.794Z,9.00
2023-02-22T19:43:10.792Z,6.10
2023-02-22T19:48:14.575Z,7.60
2023-02-22T19:53:17.423Z,8.10
2023-02-22T19:58:20.338Z,7.10
2023-02-22T20:03:25.853Z,8.70
2023-02-22T20:08:30.103Z,9.30
2023-02-22T20:13:33.005Z,9.70
2023-02-22T20:18:36.859Z,10.10
2023-02-22T20:23:41.475Z,8.70
2023-02-22T20:28:44.652Z,9.60
2023-02-22T20:33:49.256Z,10.10
2023-02-22T20:38:54.296Z,10.20
2023-02-22T20:43:57.614Z,10.10
2023-02-22T20:49:01.154Z,9.30
2023-02-22T20:54:04.055Z,9.80
2023-02-22T20:59:07.031Z,9.80
2023-02-22T21:04:10.437Z,9.80
2023-02-22T21:09:16.237Z,7.80
2023-02-22T21:14:19.943Z,6.00
2023-02-22T21:19:26.072Z,5.10
2023-02-22T21:24:29.104Z,5.40
2023-02-22T21:29:34.790Z,5.20
2023-02-22T21:34:38.634Z,5.30
2023-02-22T21:39:41.720Z,5.80
2023-02-22T21:44:44.626Z,5.30
2023-02-22T21:49:48.550Z,5.70
2023-02-22T21:54:51.404Z,5.90
2023-02-22T21:59:54.218Z,4.90
2023-02-22T22:04:57.028Z,5.10
2023-02-22T22:09:59.928Z,5.40
2023-02-22T22:15:04.708Z,5.10
2023-02-22T22:20:12.455Z,5.50
2023-02-22T22:25:17.381Z,5.20
2023-02-22T22:30:20.276Z,5.20
2023-02-22T22:35:23.080Z,5.20
2023-02-22T22:40:27.220Z,4.70
2023-02-22T22:45:30.106Z,4.40
2023-02-22T22:50:34.159Z,4.70
2023-02-22T22:55:41.767Z,4.80
2023-02-22T23:00:46.356Z,4.50
2023-02-22T23:05:49.137Z,4.60
2023-02-22T23:10:51.918Z,5.30
2023-02-22T23:15:54.739Z,4.70
2023-02-22T23:21:00.229Z,4.40
2023-02-22T23:26:18.103Z,5.20
2023-02-22T23:31:21.370Z,5.10
2023-02-22T23:36:24.859Z,4.80
2023-02-22T23:41:28.670Z,4.90
2023-02-22T23:46:32.963Z,5.40
2023-02-22T23:51:40.191Z,5.10
2023-02-22T23:56:56.883Z,4.90
